»·PEaware :: UPS949 KPDX-KLAX

UPS949 :: KPDX-KLAX

FLIGHT INFORMATION

Flight Status: Arrived
Operator:
United Parcel Service
More flights by this operator :: More flights under this callsign
Pilot: Nehseem A. (13724)
Aircraft: BOEING 747-400 (WINGLETS)
(B744)
More flights by this aircraft type
Origin: KPDX Portland Intl
United States
Destination: KLAX Los Angeles Intl
United States
More flights between these airports :: More routes between these airports
Route: HRMNS5 HRMNS J189 AVE MUPTT IRNMN1
File this flight plan on PilotEdge
Remarks:
Altitude:
(Current/Filed)
33,000ft
Speed:
(Current/Filed)
490kts
Departed: 13-Jan-18 11:15 AM
Arrived: 13-Jan-18 01:11 PM
Distance/Time
Traveled:
725nm/1:55
Distance/Time
To Go:
Arrived

Flight Plot

Page will automatically refresh every two minutes.

Flight plan parsing failed; only flown route is shown


Map Options




Map Legend


Flown Route
Filed Route
Departure Airport
Arrival Airport
Navaid (VOR, NDB)
Fix

Horizontal Profiles

Position Reports

Time Latitude Longitude Heading Altitude Ground
Speed
13-Jan-18 10:38 45.582001 -122.611518 79 42ft 0kts
13-Jan-18 10:39 45.582001 -122.611518 79 42ft 0kts
13-Jan-18 10:40 45.582001 -122.611518 79 42ft 0kts
13-Jan-18 10:41 45.582001 -122.611518 79 42ft 0kts
13-Jan-18 10:42 45.582001 -122.611518 79 42ft 0kts
13-Jan-18 10:43 45.582001 -122.611518 79 42ft 0kts
13-Jan-18 10:44 45.582001 -122.611518 79 43ft 0kts
13-Jan-18 10:45 45.582001 -122.611518 79 43ft 0kts
13-Jan-18 10:46 45.582001 -122.611518 79 43ft 0kts
13-Jan-18 10:47 45.582001 -122.611518 79 43ft 0kts
13-Jan-18 10:48 45.582001 -122.611518 79 43ft 0kts
13-Jan-18 10:49 45.582001 -122.611518 79 43ft 0kts
13-Jan-18 10:50 45.582001 -122.611518 79 43ft 0kts
13-Jan-18 10:51 45.582001 -122.611518 79 43ft 0kts
13-Jan-18 10:52 45.582001 -122.611518 79 43ft 0kts
13-Jan-18 10:53 45.582001 -122.611518 79 43ft 0kts
13-Jan-18 10:54 45.582001 -122.611518 79 43ft 0kts
13-Jan-18 10:55 45.582001 -122.611518 79 43ft 0kts
13-Jan-18 10:56 45.582001 -122.611518 79 43ft 0kts
13-Jan-18 10:57 45.582001 -122.611518 79 43ft 0kts
13-Jan-18 10:58 45.582001 -122.611518 79 43ft 0kts
13-Jan-18 10:59 45.582001 -122.611518 79 43ft 0kts
13-Jan-18 11:00 45.582001 -122.611518 79 43ft 0kts
13-Jan-18 11:01 45.582001 -122.611518 79 43ft 0kts
13-Jan-18 11:02 45.582001 -122.611518 79 43ft 0kts
13-Jan-18 11:03 45.582001 -122.611518 79 43ft 0kts
13-Jan-18 11:04 45.582001 -122.611518 79 43ft 0kts
13-Jan-18 11:05 45.582001 -122.611518 79 43ft 0kts
13-Jan-18 11:06 45.581999 -122.611530 79 43ft 0kts
13-Jan-18 11:07 45.581813 -122.612321 54 43ft 0kts
13-Jan-18 11:08 45.581813 -122.612321 54 43ft 0kts
13-Jan-18 11:09 45.581813 -122.612321 54 43ft 0kts
13-Jan-18 11:10 45.581813 -122.612321 54 43ft 0kts
13-Jan-18 11:11 45.581813 -122.612321 54 43ft 0kts
13-Jan-18 11:12 45.581813 -122.612321 54 43ft 0kts
13-Jan-18 11:13 45.582005 -122.612421 294 43ft 0kts
13-Jan-18 11:14 45.582033 -122.612502 296 43ft 0kts
13-Jan-18 11:15 45.582382 -122.612743 10 43ft 7kts
13-Jan-18 11:16 45.585458 -122.610075 4 43ft 10kts
13-Jan-18 11:17 45.586170 -122.601661 118 43ft 29kts
13-Jan-18 11:18 45.583000 -122.593304 118 43ft 32kts
13-Jan-18 11:19 45.580068 -122.585571 118 43ft 0kts
13-Jan-18 11:20 45.580732 -122.584581 320 43ft 12kts
13-Jan-18 11:21 45.592789 -122.615678 299 365ft 185kts
13-Jan-18 11:22 45.621818 -122.684733 302 3331ft 228kts
13-Jan-18 11:23 45.657344 -122.772570 293 4283ft 271kts
13-Jan-18 11:24 45.665620 -122.876056 246 6300ft 272kts
13-Jan-18 11:25 45.603314 -122.928739 176 7219ft 275kts
13-Jan-18 11:26 45.532399 -122.881280 149 9583ft 293kts
13-Jan-18 11:27 45.460464 -122.816778 149 11595ft 324kts
13-Jan-18 11:28 45.381509 -122.747962 150 13941ft 342kts
13-Jan-18 11:29 45.297143 -122.676743 152 15117ft 359kts
13-Jan-18 11:30 45.209551 -122.606629 154 17212ft 370kts
13-Jan-18 11:31 45.117950 -122.531963 151 19675ft 387kts
13-Jan-18 11:32 45.023635 -122.452591 151 22011ft 402kts
13-Jan-18 11:33 44.922050 -122.384098 168 23470ft 407kts
13-Jan-18 11:34 44.810745 -122.350586 170 24819ft 418kts
13-Jan-18 11:35 44.694871 -122.323088 175 26901ft 427kts
13-Jan-18 11:36 44.575637 -122.297524 172 28787ft 438kts
13-Jan-18 11:37 44.454265 -122.268244 172 30444ft 447kts
13-Jan-18 11:38 44.331132 -122.238303 172 31955ft 448kts
13-Jan-18 11:39 44.207420 -122.208288 172 33319ft 450kts
13-Jan-18 11:40 44.081196 -122.177786 172 33484ft 474kts
13-Jan-18 11:41 43.948406 -122.145837 172 33483ft 487kts
13-Jan-18 11:42 43.815250 -122.113945 172 33480ft 486kts
13-Jan-18 11:43 43.681650 -122.082091 172 33481ft 486kts
13-Jan-18 11:44 43.548639 -122.050520 172 33481ft 485kts
13-Jan-18 11:45 43.415518 -122.019064 172 33481ft 485kts
13-Jan-18 11:46 43.282089 -121.987672 172 33494ft 486kts
13-Jan-18 11:47 43.148471 -121.956382 172 33486ft 488kts
13-Jan-18 11:48 43.014910 -121.925239 172 33490ft 488kts
13-Jan-18 11:49 42.880670 -121.894078 172 33495ft 488kts
13-Jan-18 11:50 42.747006 -121.863185 172 33502ft 488kts
13-Jan-18 11:51 42.613092 -121.832369 172 33511ft 489kts
13-Jan-18 11:52 42.478748 -121.801587 172 33528ft 488kts
13-Jan-18 11:53 42.344914 -121.770971 172 33533ft 488kts
13-Jan-18 11:54 42.210699 -121.740548 172 33538ft 488kts
13-Jan-18 11:55 42.076724 -121.712851 174 33539ft 487kts
13-Jan-18 11:56 41.942581 -121.688012 174 33538ft 483kts
13-Jan-18 11:57 41.809897 -121.663319 174 33537ft 481kts
13-Jan-18 11:58 41.677315 -121.638485 174 33520ft 481kts
13-Jan-18 11:59 41.544304 -121.613792 174 33512ft 481kts
13-Jan-18 12:00 41.411711 -121.589298 174 33508ft 482kts
13-Jan-18 12:01 41.301122 -121.568949 174 33502ft 482kts
13-Jan-18 12:02 41.145824 -121.540491 174 33464ft 482kts
13-Jan-18 12:03 41.035136 -121.520290 174 33458ft 482kts
13-Jan-18 12:04 40.879655 -121.492031 174 33451ft 482kts
13-Jan-18 12:05 40.746852 -121.467999 174 33447ft 483kts
13-Jan-18 12:06 40.635944 -121.448002 174 33447ft 483kts
13-Jan-18 12:07 40.480422 -121.420077 174 33440ft 483kts
13-Jan-18 12:08 40.369519 -121.400242 174 33421ft 483kts
13-Jan-18 12:09 40.236481 -121.376535 174 33412ft 483kts
13-Jan-18 12:10 40.102993 -121.352842 174 33408ft 483kts
13-Jan-18 12:11 39.969908 -121.329308 174 33402ft 483kts
13-Jan-18 12:12 39.836714 -121.305858 174 33395ft 481kts
13-Jan-18 12:13 39.704010 -121.282582 174 33385ft 482kts
13-Jan-18 12:14 39.571137 -121.259364 174 33381ft 482kts
13-Jan-18 12:15 39.437732 -121.236144 174 33353ft 482kts
13-Jan-18 12:16 39.304868 -121.213108 174 33344ft 483kts
13-Jan-18 12:17 39.171805 -121.190124 174 33343ft 483kts
13-Jan-18 12:18 39.038442 -121.167177 174 33338ft 483kts
13-Jan-18 12:19 38.905210 -121.144340 174 33332ft 483kts
13-Jan-18 12:20 38.771617 -121.121526 174 33341ft 483kts
13-Jan-18 12:21 38.638365 -121.098857 174 33350ft 484kts
13-Jan-18 12:22 38.505258 -121.076296 174 33348ft 483kts
13-Jan-18 12:23 38.371532 -121.053673 174 33346ft 484kts
13-Jan-18 12:24 38.238179 -121.031234 174 33345ft 484kts
13-Jan-18 12:25 38.104600 -121.008881 174 33343ft 484kts
13-Jan-18 12:26 37.974503 -120.961641 162 33343ft 488kts
13-Jan-18 12:27 37.846511 -120.905023 163 33345ft 488kts
13-Jan-18 12:28 37.717757 -120.849094 163 33348ft 488kts
13-Jan-18 12:29 37.589466 -120.793494 163 33349ft 488kts
13-Jan-18 12:30 37.461123 -120.738264 163 33352ft 488kts
13-Jan-18 12:31 37.332266 -120.683042 163 33355ft 488kts
13-Jan-18 12:32 37.203797 -120.628189 163 33341ft 488kts
13-Jan-18 12:33 37.074808 -120.573312 163 33338ft 488kts
13-Jan-18 12:34 36.946340 -120.518853 163 33340ft 489kts
13-Jan-18 12:35 36.817481 -120.464422 163 33340ft 489kts
13-Jan-18 12:36 36.688182 -120.410000 163 33352ft 490kts
13-Jan-18 12:37 36.559082 -120.355854 163 33355ft 490kts
13-Jan-18 12:38 36.429986 -120.301900 163 33358ft 490kts
13-Jan-18 12:39 36.300471 -120.247960 163 33360ft 490kts
13-Jan-18 12:40 36.171183 -120.194303 163 33362ft 491kts
13-Jan-18 12:41 36.041568 -120.140695 163 33364ft 490kts
13-Jan-18 12:42 35.912138 -120.087223 163 33366ft 490kts
13-Jan-18 12:43 35.782474 -120.034004 163 33368ft 490kts
13-Jan-18 12:44 35.653354 -119.979931 158 33363ft 491kts
13-Jan-18 12:45 35.534083 -119.896901 150 33328ft 495kts
13-Jan-18 12:46 35.416185 -119.810212 151 32440ft 481kts
13-Jan-18 12:47 35.305081 -119.729076 150 30936ft 451kts
13-Jan-18 12:48 35.199180 -119.652027 150 29624ft 438kts
13-Jan-18 12:49 35.094860 -119.576507 150 29200ft 433kts
13-Jan-18 12:50 34.991891 -119.501995 150 27693ft 426kts
13-Jan-18 12:51 34.890517 -119.429095 150 26188ft 417kts
13-Jan-18 12:52 34.791378 -119.358091 150 24688ft 410kts
13-Jan-18 12:53 34.697193 -119.282534 145 23382ft 404kts
13-Jan-18 12:54 34.606406 -119.203478 145 21755ft 395kts
13-Jan-18 12:55 34.518409 -119.126528 144 20209ft 387kts
13-Jan-18 12:56 34.432751 -119.050932 145 18579ft 375kts
13-Jan-18 12:57 34.348846 -118.978309 145 16870ft 364kts
13-Jan-18 12:58 34.270016 -118.907041 143 15162ft 341kts
13-Jan-18 12:59 34.196930 -118.840052 143 13454ft 318kts
13-Jan-18 13:00 34.129855 -118.773131 137 11712ft 311kts
13-Jan-18 13:01 34.068984 -118.706343 138 10415ft 288kts
13-Jan-18 13:02 34.025292 -118.628611 103 8918ft 282kts
13-Jan-18 13:03 34.018022 -118.539651 94 7935ft 241kts
13-Jan-18 13:04 34.011219 -118.461983 89 7014ft 223kts
13-Jan-18 13:05 34.021739 -118.388142 77 6542ft 237kts
13-Jan-18 13:06 34.036109 -118.313651 75 5311ft 216kts
13-Jan-18 13:07 34.049966 -118.240353 76 4269ft 230kts
13-Jan-18 13:08 34.062450 -118.167080 77 3862ft 226kts
13-Jan-18 13:09 34.072338 -118.094506 98 4056ft 215kts
13-Jan-18 13:10 34.025472 -118.064530 191 3889ft 208kts
13-Jan-18 13:11 33.987279 -118.108105 248 3823ft 192kts
13-Jan-18 13:12 33.965683 -118.170490 242 3372ft 201kts
13-Jan-18 13:13 33.952056 -118.234415 265 2307ft 189kts
13-Jan-18 13:14 33.946294 -118.292535 265 1595ft 174kts
13-Jan-18 13:15 33.940840 -118.348511 264 808ft 166kts
13-Jan-18 13:16 33.935892 -118.399554 262 139ft 97kts
13-Jan-18 13:17 33.933649 -118.408030 89 139ft 11kts
13-Jan-18 13:18 33.934082 -118.402920 83 139ft 31kts

Navigation Log

Ident Type
Flight plan parsing failed, navigation log unavailable